createdAt,value
2017-06-22T13:13:23.676Z,99334.91
2017-06-22T16:40:29.041Z,99143.48
2017-06-22T16:42:57.073Z,99136.45
2017-06-22T16:45:24.586Z,99143.25
2017-06-22T16:47:52.538Z,99136.97
2017-06-22T16:50:19.975Z,99137.45
2017-06-22T16:52:47.437Z,99134.45
2017-06-22T16:55:15.215Z,99134.01
2017-06-22T16:57:43.104Z,99128.42
2017-06-22T17:00:10.934Z,99131.81
2017-06-22T17:02:38.581Z,99129.24
2017-06-22T17:05:06.611Z,99126.59
2017-06-22T17:07:34.060Z,99126.77
2017-06-22T17:10:01.639Z,99126.30
2017-06-22T17:12:29.294Z,99123.42
2017-06-22T17:14:56.731Z,99119.78
2017-06-22T17:17:24.519Z,99113.39
2017-06-22T17:19:52.375Z,99112.16
2017-06-22T17:22:19.971Z,99099.89
2017-06-22T17:24:48.526Z,99102.59
2017-06-22T17:27:16.498Z,99106.36
2017-06-22T17:29:44.272Z,99105.23
2017-06-22T17:32:11.831Z,99111.98
2017-06-22T17:34:39.491Z,99113.86
2017-06-22T17:37:07.969Z,99108.34
2017-06-22T17:39:36.348Z,99109.41
2017-06-22T17:42:04.606Z,99106.94
2017-06-22T17:44:32.078Z,99112.05
2017-06-22T17:46:59.855Z,99116.51
2017-06-22T17:49:27.315Z,99118.27
2017-06-22T17:51:55.046Z,99119.84
2017-06-22T17:54:24.169Z,99123.70
2017-06-22T17:56:52.237Z,99126.59
2017-06-22T17:59:21.113Z,99127.84
2017-06-22T18:01:49.823Z,99137.80
2017-06-22T18:04:17.591Z,99128.06
2017-06-22T18:06:45.663Z,99138.68
2017-06-22T18:09:13.386Z,99131.70
2017-06-22T18:11:40.985Z,99141.56
2017-06-22T18:14:08.456Z,99140.44
2017-06-22T18:16:36.724Z,99144.70
2017-06-22T18:19:04.922Z,99140.66
2017-06-22T18:21:32.635Z,99138.27
2017-06-22T18:24:00.195Z,99140.79
2017-06-22T18:26:27.920Z,99146.50
2017-06-22T18:28:55.614Z,99146.59
2017-06-22T18:31:23.139Z,99141.20
2017-06-22T18:33:51.079Z,99142.55
2017-06-22T18:36:18.547Z,99146.50
2017-06-22T18:38:46.407Z,99148.94
2017-06-22T18:41:14.438Z,99150.11
2017-06-22T18:43:42.116Z,99146.06
2017-06-22T18:46:09.560Z,99150.41
2017-06-22T18:48:37.182Z,99153.83
2017-06-22T18:51:04.654Z,99149.64
2017-06-22T18:53:32.508Z,99151.88
2017-06-22T18:56:00.550Z,99146.91
2017-06-22T18:58:29.040Z,99143.15
2017-06-22T19:00:57.425Z,99150.28
2017-06-22T19:03:25.585Z,99151.17
2017-06-22T19:05:53.568Z,99151.17
2017-06-22T19:08:21.338Z,99154.09
2017-06-22T19:10:49.725Z,99157.64
2017-06-22T19:13:19.086Z,99157.52
2017-06-22T19:15:46.978Z,99153.70
2017-06-22T19:18:14.546Z,99156.33
2017-06-22T19:20:42.989Z,99161.58
2017-06-22T19:23:10.791Z,99154.55
2017-06-22T19:25:38.242Z,99160.92
2017-06-22T19:28:05.694Z,99167.07
2017-06-22T19:30:33.776Z,99171.47
2017-06-22T19:33:01.847Z,99170.21
2017-06-22T19:35:29.797Z,99180.18
2017-06-22T19:37:58.511Z,99177.02
2017-06-22T19:40:26.855Z,99171.91
2017-06-22T19:42:55.507Z,99187.61
2017-06-22T19:45:23.080Z,99183.78
2017-06-22T19:47:50.911Z,99191.69
2017-06-22T19:50:19.028Z,99186.00
2017-06-22T19:52:46.743Z,99187.38
2017-06-22T19:55:16.036Z,99187.73
2017-06-22T19:57:43.812Z,99182.05
2017-06-22T20:00:12.588Z,99183.72
2017-06-22T20:02:40.067Z,99187.42
2017-06-22T20:05:08.634Z,99186.16
2017-06-22T20:07:36.459Z,99173.28
2017-06-22T20:10:04.178Z,99169.52
2017-06-22T20:12:32.349Z,99166.12
2017-06-22T20:15:00.617Z,99160.23
2017-06-22T20:17:28.880Z,99158.64
2017-06-22T20:19:57.222Z,99158.52
2017-06-22T20:22:25.760Z,99160.30
2017-06-22T20:24:53.683Z,99147.45
2017-06-22T20:27:21.699Z,99141.23
2017-06-22T20:29:49.604Z,99139.83
2017-06-22T20:32:17.740Z,99130.89
2017-06-22T20:34:45.456Z,99126.84
2017-06-22T20:37:12.952Z,99121.01
2017-06-22T20:39:40.645Z,99120.57
2017-06-22T20:42:08.669Z,99116.71
2017-06-22T20:44:36.348Z,99108.16
2017-06-22T20:47:04.447Z,99103.69
2017-06-22T20:49:32.516Z,99102.94
2017-06-22T20:52:00.528Z,99108.61
2017-06-22T20:54:28.607Z,99106.63
2017-06-22T20:56:56.555Z,99106.73
2017-06-22T20:59:25.945Z,99106.12
2017-06-22T21:01:53.678Z,99112.38
2017-06-22T21:04:21.254Z,99101.48
2017-06-22T21:06:48.816Z,99099.95
2017-06-22T21:09:16.491Z,99111.91
2017-06-22T21:11:44.483Z,99115.83
2017-06-22T21:14:12.047Z,99105.82
2017-06-22T21:16:40.383Z,99119.11
2017-06-22T21:19:08.750Z,99107.52
2017-06-22T21:21:37.455Z,99107.20
2017-06-22T21:24:07.070Z,99099.69
2017-06-22T21:26:35.648Z,99095.94
2017-06-22T21:29:03.409Z,99097.70
2017-06-22T21:31:31.047Z,99099.52
2017-06-22T21:33:58.606Z,99097.41
2017-06-22T21:36:27.179Z,99091.24
2017-06-22T21:38:55.196Z,99096.36
2017-06-22T21:41:23.283Z,99093.11
2017-06-22T21:43:51.763Z,99084.81
2017-06-22T21:46:20.080Z,99082.61
2017-06-22T21:48:47.819Z,99091.09
2017-06-22T21:51:15.652Z,99089.44
2017-06-22T21:53:43.692Z,99092.14
2017-06-22T21:56:12.020Z,99086.16
2017-06-22T21:58:40.677Z,99083.40
2017-06-22T22:01:08.673Z,99086.39
2017-06-22T22:03:36.431Z,99092.59
2017-06-22T22:06:04.326Z,99088.91
2017-06-22T22:08:33.778Z,99095.68
2017-06-22T22:11:01.769Z,99098.95
2017-06-22T22:13:29.930Z,99108.01
2017-06-22T22:15:57.591Z,99119.45
2017-06-22T22:18:26.230Z,99109.83
2017-06-22T22:20:54.451Z,99103.02
2017-06-22T22:23:22.851Z,99103.65
2017-06-22T22:25:51.928Z,99097.53
2017-06-22T22:28:20.122Z,99091.98
2017-06-22T22:30:48.199Z,99090.61
2017-06-22T22:33:16.917Z,99085.65
2017-06-22T22:35:44.423Z,99080.95
2017-06-22T22:38:12.199Z,99074.96
2017-06-22T22:40:40.571Z,99076.02
2017-06-22T22:43:08.718Z,99072.88
2017-06-22T22:45:38.090Z,99073.84
2017-06-22T22:48:06.952Z,99070.26
2017-06-22T22:50:34.928Z,99073.94
2017-06-22T22:53:02.623Z,99074.88
2017-06-22T22:55:30.423Z,99065.61
2017-06-22T22:57:57.994Z,99066.09
2017-06-22T23:00:26.519Z,99065.27
2017-06-22T23:02:54.580Z,99064.08
2017-06-22T23:05:22.808Z,99061.85
2017-06-22T23:07:50.723Z,99064.30
2017-06-22T23:10:19.108Z,99065.83
2017-06-22T23:12:47.268Z,99063.20
2017-06-22T23:15:16.269Z,99060.16
2017-06-22T23:17:44.310Z,99056.76
2017-06-22T23:20:12.356Z,99064.97
2017-06-22T23:22:40.076Z,99064.34
2017-06-22T23:25:09.172Z,99060.43
2017-06-22T23:27:37.859Z,99053.81
2017-06-22T23:30:05.631Z,99047.08
2017-06-22T23:32:33.390Z,99046.27
2017-06-22T23:35:01.971Z,99037.30
2017-06-22T23:37:29.473Z,99030.48
2017-06-22T23:39:58.017Z,99030.04
2017-06-22T23:42:26.185Z,99016.28
2017-06-22T23:44:54.073Z,99010.52
2017-06-22T23:47:21.904Z,99008.02
2017-06-22T23:49:49.381Z,99007.33
2017-06-22T23:52:17.850Z,99007.33
2017-06-22T23:54:46.447Z,99007.14
2017-06-22T23:57:15.034Z,99006.57
2017-06-22T23:59:43.416Z,99007.42
